createdAt,value
2022-12-12T00:01:39.183Z,3.30
2022-12-12T00:04:06.373Z,3.30
2022-12-12T00:06:33.324Z,3.30
2022-12-12T00:09:00.085Z,3.30
2022-12-12T00:11:27.464Z,3.30
2022-12-12T00:13:54.619Z,3.30
2022-12-12T00:16:21.906Z,3.30
2022-12-12T00:18:48.950Z,3.30
2022-12-12T00:21:18.631Z,3.30
2022-12-12T00:23:45.815Z,3.30
2022-12-12T00:26:21.020Z,3.30
2022-12-12T00:28:49.367Z,3.30
2022-12-12T00:31:16.975Z,3.30
2022-12-12T00:33:45.071Z,3.30
2022-12-12T00:36:11.824Z,3.30
2022-12-12T00:38:38.445Z,3.30
2022-12-12T00:41:06.261Z,3.30
2022-12-12T00:43:33.517Z,3.30
2022-12-12T00:46:00.995Z,3.30
2022-12-12T00:48:28.906Z,3.30
2022-12-12T00:50:55.772Z,3.30
2022-12-12T00:53:22.451Z,3.30
2022-12-12T00:55:57.266Z,3.30
2022-12-12T00:58:24.617Z,3.30
2022-12-12T01:00:51.928Z,3.30
2022-12-12T01:03:19.506Z,3.30
2022-12-12T01:05:46.326Z,3.30
2022-12-12T01:08:13.170Z,3.30
2022-12-12T01:10:40.399Z,3.30
2022-12-12T01:13:06.978Z,3.30
2022-12-12T01:15:33.635Z,3.30
2022-12-12T01:18:00.287Z,3.30
2022-12-12T01:20:28.747Z,3.30
2022-12-12T01:22:55.381Z,3.30
2022-12-12T01:25:22.166Z,3.20
2022-12-12T01:27:48.873Z,3.20
2022-12-12T01:30:19.774Z,3.20
2022-12-12T01:32:46.401Z,3.20
2022-12-12T01:35:13.114Z,3.20
2022-12-12T01:37:40.930Z,3.20
2022-12-12T01:40:13.280Z,3.20
2022-12-12T01:42:39.866Z,3.10
2022-12-12T01:45:07.045Z,3.20
2022-12-12T01:47:33.643Z,3.20
2022-12-12T01:50:07.973Z,3.10
2022-12-12T01:52:49.110Z,3.10
2022-12-12T01:55:20.591Z,3.10
2022-12-12T01:57:51.712Z,3.10
2022-12-12T02:00:26.794Z,3.10
2022-12-12T02:02:55.949Z,3.10
2022-12-12T02:05:34.778Z,3.10
2022-12-12T02:08:03.489Z,3.10
2022-12-12T02:10:30.562Z,3.10
2022-12-12T02:13:04.152Z,3.10
2022-12-12T02:15:41.814Z,3.10
2022-12-12T02:18:17.033Z,3.10
2022-12-12T02:21:03.078Z,3.10
2022-12-12T02:24:03.090Z,3.10
2022-12-12T02:27:07.279Z,3.00
2022-12-12T02:30:10.691Z,3.00
2022-12-12T02:32:40.243Z,3.00
2022-12-12T02:35:25.212Z,3.00
2022-12-12T02:38:02.286Z,3.00
2022-12-12T02:40:38.729Z,3.00
2022-12-12T02:43:26.632Z,3.00
2022-12-12T02:46:05.415Z,3.00
2022-12-12T02:48:46.907Z,3.00
2022-12-12T02:51:15.764Z,3.00
2022-12-12T02:53:42.411Z,2.90
2022-12-12T02:56:47.698Z,3.00
2022-12-12T02:59:22.954Z,2.90
2022-12-12T03:02:08.217Z,2.90
2022-12-12T03:05:18.899Z,2.90
2022-12-12T03:08:05.153Z,2.90
2022-12-12T03:10:57.824Z,2.90
2022-12-12T03:13:40.181Z,2.80
2022-12-12T03:16:32.912Z,2.80
2022-12-12T03:19:38.415Z,2.80
2022-12-12T03:22:19.686Z,2.80
2022-12-12T03:24:56.084Z,2.80
2022-12-12T03:27:45.388Z,2.80
2022-12-12T03:30:15.139Z,2.80
2022-12-12T03:32:48.778Z,2.80
2022-12-12T03:35:53.266Z,2.80
2022-12-12T03:38:24.694Z,2.80
2022-12-12T03:40:58.970Z,2.80
2022-12-12T03:43:48.829Z,2.80
2022-12-12T03:46:27.330Z,2.80
2022-12-12T03:48:57.631Z,2.80
2022-12-12T03:51:33.391Z,2.80
2022-12-12T03:54:04.955Z,2.70
2022-12-12T03:56:42.204Z,2.70
2022-12-12T03:59:22.748Z,2.70
2022-12-12T04:02:07.967Z,2.70
2022-12-12T04:04:58.954Z,2.70
2022-12-12T04:07:33.811Z,2.70
2022-12-12T04:10:18.966Z,2.70
2022-12-12T04:13:08.288Z,2.70
2022-12-12T04:16:02.721Z,2.70
2022-12-12T04:18:52.698Z,2.70
2022-12-12T04:21:42.622Z,2.70
2022-12-12T04:24:27.784Z,2.70
2022-12-12T04:27:06.889Z,2.70
2022-12-12T04:29:42.812Z,2.70
2022-12-12T04:32:13.094Z,2.70
2022-12-12T04:34:49.913Z,2.70
2022-12-12T04:37:21.700Z,2.70
2022-12-12T04:39:51.124Z,2.70
2022-12-12T04:42:22.672Z,2.70
2022-12-12T04:44:52.802Z,2.60
2022-12-12T04:47:21.056Z,2.60
2022-12-12T04:49:49.994Z,2.70
2022-12-12T04:52:20.362Z,2.60
2022-12-12T04:54:54.089Z,2.60
2022-12-12T04:57:26.051Z,2.60
2022-12-12T04:59:52.785Z,2.60
2022-12-12T05:02:30.749Z,2.60
2022-12-12T05:05:02.286Z,2.60
2022-12-12T05:07:43.771Z,2.60
2022-12-12T05:10:16.553Z,2.60
2022-12-12T05:12:46.709Z,2.60
2022-12-12T05:15:15.783Z,2.50
2022-12-12T05:17:46.592Z,2.40
2022-12-12T05:20:14.807Z,2.30
2022-12-12T05:22:41.434Z,2.40
2022-12-12T05:25:08.582Z,2.40
2022-12-12T05:27:35.290Z,2.40
2022-12-12T05:30:02.178Z,2.40
2022-12-12T05:32:28.903Z,2.40
2022-12-12T05:34:55.549Z,2.40
2022-12-12T05:37:22.293Z,2.40
2022-12-12T05:39:48.957Z,2.40
2022-12-12T05:42:15.515Z,2.40
2022-12-12T05:44:42.810Z,2.40
2022-12-12T05:47:09.765Z,2.40
2022-12-12T05:49:36.333Z,2.30
2022-12-12T05:52:03.515Z,2.40
2022-12-12T05:54:30.462Z,2.40
2022-12-12T05:56:57.173Z,2.40
2022-12-12T05:59:23.860Z,2.30
2022-12-12T06:01:50.447Z,2.30
2022-12-12T06:04:17.083Z,2.30
2022-12-12T06:06:43.753Z,2.30
2022-12-12T06:09:10.356Z,2.30
2022-12-12T06:11:36.984Z,2.30
2022-12-12T06:14:03.912Z,2.30
2022-12-12T06:16:30.597Z,2.30
2022-12-12T06:18:57.318Z,2.30
2022-12-12T06:21:24.455Z,2.30
2022-12-12T06:23:51.734Z,2.30
2022-12-12T06:26:20.559Z,2.30
2022-12-12T06:28:47.817Z,2.30
2022-12-12T06:31:14.862Z,2.30
2022-12-12T06:33:43.470Z,2.30
2022-12-12T06:36:14.084Z,2.30
2022-12-12T06:38:41.489Z,2.30
2022-12-12T06:41:10.653Z,2.20
2022-12-12T06:43:37.295Z,2.20
2022-12-12T06:46:06.419Z,2.30
2022-12-12T06:48:34.444Z,2.20
2022-12-12T06:51:06.619Z,2.20
2022-12-12T06:53:33.358Z,2.20
2022-12-12T06:55:59.934Z,2.20
2022-12-12T06:58:26.517Z,2.20
2022-12-12T07:00:53.817Z,2.20
2022-12-12T07:03:20.964Z,2.20
2022-12-12T07:05:47.773Z,2.20
2022-12-12T07:08:15.577Z,2.20
2022-12-12T07:10:42.544Z,2.20
2022-12-12T07:13:09.384Z,2.20
2022-12-12T07:15:45.606Z,2.20
2022-12-12T07:18:12.938Z,2.20
2022-12-12T07:20:45.967Z,2.20
2022-12-12T07:23:12.965Z,2.20
2022-12-12T07:25:41.293Z,2.20
2022-12-12T07:28:08.957Z,2.20
2022-12-12T07:30:39.308Z,2.20
2022-12-12T07:33:06.005Z,2.20
2022-12-12T07:35:32.936Z,2.20
2022-12-12T07:37:59.499Z,2.10
2022-12-12T07:40:26.368Z,2.20
2022-12-12T07:42:53.039Z,2.10
2022-12-12T07:45:20.297Z,2.10
2022-12-12T07:47:47.545Z,2.20
2022-12-12T07:50:14.485Z,2.10
2022-12-12T07:52:41.693Z,2.10
2022-12-12T07:55:08.720Z,2.10
2022-12-12T07:57:35.342Z,2.10
2022-12-12T08:00:02.186Z,2.10
2022-12-12T08:02:28.846Z,2.10
2022-12-12T08:04:55.631Z,2.10
2022-12-12T08:07:22.213Z,2.10
2022-12-12T08:09:48.928Z,2.10
2022-12-12T08:12:15.693Z,2.10
2022-12-12T08:14:42.502Z,2.10
2022-12-12T08:17:09.143Z,2.10
2022-12-12T08:19:35.861Z,2.10
2022-12-12T08:22:02.656Z,2.10
2022-12-12T08:24:30.083Z,2.10
2022-12-12T08:26:56.635Z,2.10
2022-12-12T08:29:23.303Z,2.10
2022-12-12T08:31:50.134Z,2.10
2022-12-12T08:34:16.808Z,2.10
2022-12-12T08:36:43.889Z,2.10
2022-12-12T08:39:14.165Z,2.10
2022-12-12T08:41:43.659Z,2.10
2022-12-12T08:44:12.522Z,2.10
2022-12-12T08:46:40.085Z,2.10
2022-12-12T08:49:07.871Z,2.20
2022-12-12T08:51:37.464Z,2.20
2022-12-12T08:54:04.252Z,2.20
2022-12-12T08:56:30.853Z,2.20
2022-12-12T08:58:57.598Z,2.20
2022-12-12T09:01:26.329Z,2.20
2022-12-12T09:03:54.897Z,2.20
2022-12-12T09:06:22.514Z,2.20
2022-12-12T09:08:50.127Z,2.20
2022-12-12T09:11:18.154Z,2.20
2022-12-12T09:13:45.225Z,2.20
2022-12-12T09:16:12.732Z,2.20
2022-12-12T09:18:46.346Z,2.20
2022-12-12T09:21:15.735Z,2.20
2022-12-12T09:23:42.345Z,2.20
2022-12-12T09:26:10.378Z,2.20
2022-12-12T09:28:37.233Z,2.30
2022-12-12T09:31:08.620Z,2.30
2022-12-12T09:33:36.059Z,2.30
2022-12-12T09:36:05.561Z,2.30
2022-12-12T09:38:32.703Z,2.30
2022-12-12T09:41:09.186Z,2.30
2022-12-12T09:43:46.782Z,2.40
2022-12-12T09:46:34.368Z,2.30
2022-12-12T09:49:12.847Z,2.30
2022-12-12T09:51:40.778Z,2.40
2022-12-12T09:54:07.542Z,2.40
2022-12-12T09:56:50.706Z,2.40
2022-12-12T09:59:31.873Z,2.40
2022-12-12T10:02:47.627Z,2.40
2022-12-12T10:06:28.787Z,2.50
2022-12-12T10:09:27.172Z,2.50
2022-12-12T10:11:55.761Z,2.50
2022-12-12T10:14:35.773Z,2.50
2022-12-12T10:17:07.352Z,2.50
2022-12-12T10:19:43.940Z,2.50
2022-12-12T10:22:24.447Z,2.50
2022-12-12T10:25:06.421Z,2.50
2022-12-12T10:27:33.107Z,2.50
2022-12-12T10:30:13.647Z,2.60
2022-12-12T10:33:07.958Z,2.60
2022-12-12T10:36:08.255Z,2.60
2022-12-12T10:39:07.588Z,2.60
2022-12-12T10:41:48.863Z,2.70
2022-12-12T10:44:47.485Z,2.70
2022-12-12T10:47:14.544Z,2.70
2022-12-12T10:49:42.158Z,2.80
2022-12-12T10:52:18.346Z,2.80
2022-12-12T10:54:50.754Z,2.80
2022-12-12T10:57:29.129Z,2.80
2022-12-12T10:59:57.978Z,2.80
2022-12-12T11:02:39.714Z,2.90
2022-12-12T11:05:06.540Z,2.90
2022-12-12T11:07:38.967Z,3.00
2022-12-12T11:10:30.468Z,3.00
2022-12-12T11:13:13.089Z,3.00
2022-12-12T11:15:56.559Z,3.00
2022-12-12T11:18:24.919Z,3.10
2022-12-12T11:21:08.582Z,3.10
2022-12-12T11:23:39.752Z,3.20
2022-12-12T11:26:13.831Z,3.20
2022-12-12T11:28:41.428Z,3.30
2022-12-12T11:31:16.911Z,3.30
2022-12-12T11:33:50.213Z,3.30
2022-12-12T11:36:19.230Z,3.40
2022-12-12T11:38:55.050Z,3.40
2022-12-12T11:41:22.254Z,3.50
2022-12-12T11:43:49.048Z,3.60
2022-12-12T11:46:17.212Z,3.60
2022-12-12T11:48:47.055Z,3.60
2022-12-12T11:51:29.743Z,3.70
2022-12-12T11:53:56.498Z,3.70
2022-12-12T11:56:36.437Z,3.80
2022-12-12T11:59:21.224Z,3.80
2022-12-12T12:02:11.014Z,3.80
2022-12-12T12:04:56.457Z,3.90
2022-12-12T12:07:57.497Z,3.90
2022-12-12T12:10:48.661Z,4.00
2022-12-12T12:13:35.500Z,4.10
2022-12-12T12:16:05.148Z,4.10
2022-12-12T12:18:52.357Z,4.10
2022-12-12T12:21:46.758Z,4.20
2022-12-12T12:24:47.515Z,4.30
2022-12-12T12:27:47.380Z,4.30
2022-12-12T12:30:48.934Z,4.40
2022-12-12T12:33:34.931Z,4.40
2022-12-12T12:36:22.794Z,4.50
2022-12-12T12:38:54.518Z,4.50
2022-12-12T12:41:31.736Z,4.50
2022-12-12T12:44:14.466Z,4.60
2022-12-12T12:46:50.016Z,4.60
2022-12-12T12:49:24.701Z,4.70
2022-12-12T12:52:20.846Z,4.70
2022-12-12T12:54:49.272Z,4.80
2022-12-12T12:57:39.212Z,4.80
2022-12-12T13:00:17.395Z,4.90
2022-12-12T13:03:13.452Z,4.90
2022-12-12T13:05:46.244Z,5.00
2022-12-12T13:08:43.119Z,5.00
2022-12-12T13:11:26.929Z,5.00
2022-12-12T13:13:57.246Z,5.10
2022-12-12T13:16:27.784Z,5.10
2022-12-12T13:19:10.996Z,5.20
2022-12-12T13:21:57.248Z,5.20
2022-12-12T13:24:36.742Z,5.20
2022-12-12T13:27:25.653Z,5.30
2022-12-12T13:30:00.523Z,5.30
2022-12-12T13:32:39.290Z,5.30
2022-12-12T13:35:15.250Z,5.30
2022-12-12T13:37:48.719Z,5.40
2022-12-12T13:40:29.497Z,5.40
2022-12-12T13:42:57.897Z,5.40
2022-12-12T13:45:39.592Z,5.50
2022-12-12T13:48:29.331Z,5.50
2022-12-12T13:51:36.236Z,5.50
2022-12-12T13:54:13.778Z,5.50
2022-12-12T13:56:45.228Z,5.50
2022-12-12T13:59:26.967Z,5.50
2022-12-12T14:02:00.948Z,5.50
2022-12-12T14:04:32.206Z,5.50
2022-12-12T14:07:19.015Z,5.50
2022-12-12T14:09:49.616Z,5.50
2022-12-12T14:12:20.232Z,5.50
2022-12-12T14:14:57.511Z,5.50
2022-12-12T14:17:26.720Z,5.50
2022-12-12T14:19:55.945Z,5.50
2022-12-12T14:22:28.232Z,5.50
2022-12-12T14:25:17.926Z,5.50
2022-12-12T14:27:50.520Z,5.40
2022-12-12T14:30:18.155Z,5.40
2022-12-12T14:33:09.113Z,5.40
2022-12-12T14:35:51.494Z,5.40
2022-12-12T14:38:27.752Z,5.40
2022-12-12T14:41:00.234Z,5.40
2022-12-12T14:43:34.125Z,5.40
2022-12-12T14:46:01.961Z,5.40
2022-12-12T14:48:29.447Z,5.40
2022-12-12T14:51:09.528Z,5.40
2022-12-12T14:53:39.214Z,5.40
2022-12-12T14:56:10.450Z,5.40
2022-12-12T14:58:41.398Z,5.40
2022-12-12T15:01:08.983Z,5.30
2022-12-12T15:03:41.859Z,5.40
2022-12-12T15:06:23.784Z,5.40
2022-12-12T15:08:52.488Z,5.40
2022-12-12T15:11:25.641Z,5.30
2022-12-12T15:14:00.365Z,5.30
2022-12-12T15:16:58.713Z,5.30
2022-12-12T15:19:45.527Z,5.30
2022-12-12T15:22:31.527Z,5.30
2022-12-12T15:25:20.537Z,5.30
2022-12-12T15:27:55.621Z,5.20
2022-12-12T15:30:37.158Z,5.20
2022-12-12T15:33:06.279Z,5.20
2022-12-12T15:35:32.967Z,5.20
2022-12-12T15:38:10.418Z,5.20
2022-12-12T15:40:38.901Z,5.20
2022-12-12T15:43:11.205Z,5.10
2022-12-12T15:45:46.074Z,5.10
2022-12-12T15:48:18.780Z,5.10
2022-12-12T15:50:45.942Z,5.10
2022-12-12T15:53:15.321Z,5.00
2022-12-12T15:55:53.381Z,5.00
2022-12-12T15:58:29.093Z,5.00
2022-12-12T16:01:20.979Z,5.00
2022-12-12T16:04:19.145Z,5.00
2022-12-12T16:06:47.422Z,5.00
2022-12-12T16:09:26.309Z,4.90
2022-12-12T16:11:53.906Z,4.90
2022-12-12T16:14:35.511Z,4.90
2022-12-12T16:17:20.396Z,4.80
2022-12-12T16:19:56.196Z,4.80
2022-12-12T16:22:37.525Z,4.80
2022-12-12T16:25:17.478Z,4.80
2022-12-12T16:27:44.920Z,4.70
2022-12-12T16:30:14.523Z,4.70
2022-12-12T16:32:42.400Z,4.60
2022-12-12T16:35:15.709Z,4.60
2022-12-12T16:37:42.510Z,4.60
2022-12-12T16:40:14.554Z,4.50
2022-12-12T16:42:42.539Z,4.50
2022-12-12T16:45:11.590Z,4.40
2022-12-12T16:47:38.477Z,4.40
2022-12-12T16:50:05.563Z,4.40
2022-12-12T16:52:32.205Z,4.40
2022-12-12T16:54:58.810Z,4.30
2022-12-12T16:57:25.432Z,4.30
2022-12-12T16:59:52.049Z,4.30
2022-12-12T17:02:22.027Z,4.30
2022-12-12T17:04:50.316Z,4.30
2022-12-12T17:07:17.273Z,4.30
2022-12-12T17:09:43.961Z,4.30
2022-12-12T17:12:12.929Z,4.20
2022-12-12T17:14:39.636Z,4.20
2022-12-12T17:17:06.698Z,4.20
2022-12-12T17:19:33.538Z,4.10
2022-12-12T17:22:00.735Z,4.10
2022-12-12T17:24:27.604Z,4.10
2022-12-12T17:26:54.354Z,4.10
2022-12-12T17:29:21.295Z,4.10
2022-12-12T17:31:48.064Z,4.10
2022-12-12T17:34:14.703Z,4.10
2022-12-12T17:36:41.431Z,4.10
2022-12-12T17:39:07.977Z,4.00
2022-12-12T17:41:34.710Z,4.00
2022-12-12T17:44:01.271Z,4.00
2022-12-12T17:46:28.778Z,4.00
2022-12-12T17:48:58.301Z,4.00
2022-12-12T17:51:25.209Z,3.90
2022-12-12T17:53:52.919Z,3.90
2022-12-12T17:56:22.614Z,3.90
2022-12-12T17:58:50.227Z,3.90
2022-12-12T18:01:23.985Z,3.90
2022-12-12T18:03:51.659Z,3.80
2022-12-12T18:06:19.856Z,3.80
2022-12-12T18:08:47.146Z,3.80
2022-12-12T18:11:16.490Z,3.80
2022-12-12T18:13:44.109Z,3.80
2022-12-12T18:16:13.060Z,3.80
2022-12-12T18:18:40.450Z,3.70
2022-12-12T18:21:35.871Z,3.70
2022-12-12T18:24:03.708Z,3.70
2022-12-12T18:26:30.410Z,3.70
2022-12-12T18:29:02.104Z,3.70
2022-12-12T18:31:29.569Z,3.60
2022-12-12T18:33:56.937Z,3.60
2022-12-12T18:36:27.404Z,3.60
2022-12-12T18:38:55.992Z,3.60
2022-12-12T18:41:22.832Z,3.50
2022-12-12T18:43:49.410Z,3.50
2022-12-12T18:46:18.991Z,3.50
2022-12-12T18:48:47.518Z,3.50
2022-12-12T18:51:15.494Z,3.50
2022-12-12T18:53:42.178Z,3.50
2022-12-12T18:56:10.045Z,3.40
2022-12-12T18:58:37.648Z,3.50
2022-12-12T19:01:21.470Z,3.40
2022-12-12T19:03:50.132Z,3.40
2022-12-12T19:06:19.774Z,3.40
2022-12-12T19:08:46.612Z,3.40
2022-12-12T19:11:14.363Z,3.30
2022-12-12T19:13:42.984Z,3.30
2022-12-12T19:16:16.070Z,3.30
2022-12-12T19:18:43.932Z,3.30
2022-12-12T19:21:16.291Z,3.30
2022-12-12T19:23:43.118Z,3.30
2022-12-12T19:26:13.120Z,3.20
2022-12-12T19:28:40.403Z,3.20
2022-12-12T19:31:09.744Z,3.20
2022-12-12T19:33:37.038Z,3.20
2022-12-12T19:36:16.163Z,3.20
2022-12-12T19:38:43.708Z,3.10
2022-12-12T19:41:13.179Z,3.10
2022-12-12T19:43:41.157Z,3.10
2022-12-12T19:46:10.547Z,3.10
2022-12-12T19:48:37.965Z,3.10
2022-12-12T19:51:09.780Z,3.10
2022-12-12T19:53:43.713Z,3.10
2022-12-12T19:56:16.010Z,3.00
2022-12-12T19:58:43.095Z,3.00
2022-12-12T20:01:13.125Z,3.00
2022-12-12T20:03:40.687Z,3.00
2022-12-12T20:06:10.837Z,3.00
2022-12-12T20:08:37.871Z,2.90
2022-12-12T20:11:09.762Z,2.90
2022-12-12T20:13:36.599Z,2.90
2022-12-12T20:16:11.412Z,2.90
2022-12-12T20:18:38.615Z,2.90
2022-12-12T20:21:06.141Z,2.90
2022-12-12T20:23:35.902Z,2.80
2022-12-12T20:26:07.030Z,2.80
2022-12-12T20:28:33.817Z,2.80
2022-12-12T20:31:11.657Z,2.80
2022-12-12T20:33:39.387Z,2.80
2022-12-12T20:36:13.076Z,2.80
2022-12-12T20:38:40.306Z,2.70
2022-12-12T20:41:12.852Z,2.70
2022-12-12T20:43:40.284Z,2.70
2022-12-12T20:46:18.332Z,2.70
2022-12-12T20:48:45.653Z,2.70
2022-12-12T20:51:45.674Z,2.60
2022-12-12T20:54:04.770Z,2.60
2022-12-12T20:56:31.364Z,2.60
2022-12-12T20:59:00.453Z,2.60
2022-12-12T21:01:37.599Z,2.60
2022-12-12T21:04:06.488Z,2.60
2022-12-12T21:06:35.917Z,2.60
2022-12-12T21:09:06.409Z,2.60
2022-12-12T21:11:33.298Z,2.50
2022-12-12T21:14:00.457Z,2.50
2022-12-12T21:16:30.941Z,2.50
2022-12-12T21:19:01.092Z,2.50
2022-12-12T21:21:28.226Z,2.50
2022-12-12T21:23:55.438Z,2.40
2022-12-12T21:26:28.610Z,2.50
2022-12-12T21:28:56.715Z,2.40
2022-12-12T21:31:32.295Z,2.40
2022-12-12T21:33:59.500Z,2.40
2022-12-12T21:36:27.879Z,2.40
2022-12-12T21:38:56.092Z,2.40
2022-12-12T21:41:23.680Z,2.40
2022-12-12T21:43:50.730Z,2.30
2022-12-12T21:46:22.723Z,2.30
2022-12-12T21:49:12.972Z,2.30
2022-12-12T21:51:41.046Z,2.30
2022-12-12T21:54:08.532Z,2.30
2022-12-12T21:56:35.434Z,2.30
2022-12-12T21:59:03.387Z,2.20
2022-12-12T22:01:32.069Z,2.20
2022-12-12T22:03:59.629Z,2.20
2022-12-12T22:06:29.301Z,2.20
2022-12-12T22:08:56.788Z,2.20
2022-12-12T22:11:40.194Z,2.20
2022-12-12T22:14:11.383Z,2.20
2022-12-12T22:16:38.317Z,2.20
2022-12-12T22:19:10.211Z,2.20
2022-12-12T22:21:37.484Z,2.20
2022-12-12T22:24:04.886Z,2.20
2022-12-12T22:26:40.185Z,2.20
2022-12-12T22:29:10.179Z,2.20
2022-12-12T22:31:38.536Z,2.10
2022-12-12T22:34:08.221Z,2.10
2022-12-12T22:36:36.983Z,2.10
2022-12-12T22:39:06.059Z,2.10
2022-12-12T22:41:32.949Z,2.10
2022-12-12T22:44:03.808Z,2.10
2022-12-12T22:46:31.014Z,2.10
2022-12-12T22:48:59.926Z,2.00
2022-12-12T22:51:29.680Z,2.00
2022-12-12T22:53:58.060Z,2.00
2022-12-12T22:56:25.423Z,2.00
2022-12-12T22:58:52.019Z,2.00
2022-12-12T23:01:21.091Z,2.00
2022-12-12T23:03:48.384Z,2.00
2022-12-12T23:06:27.107Z,2.00
2022-12-12T23:08:56.659Z,2.00
2022-12-12T23:11:24.860Z,2.00
2022-12-12T23:13:54.700Z,1.90
2022-12-12T23:16:24.095Z,2.00
2022-12-12T23:18:51.361Z,1.90
2022-12-12T23:21:19.687Z,1.90
2022-12-12T23:23:46.842Z,1.90
2022-12-12T23:26:16.169Z,1.90
2022-12-12T23:28:43.794Z,1.90
2022-12-12T23:31:22.406Z,1.90
2022-12-12T23:33:52.758Z,1.90
2022-12-12T23:36:19.302Z,1.80
2022-12-12T23:38:45.901Z,1.90
2022-12-12T23:41:14.600Z,1.80
2022-12-12T23:43:42.329Z,1.80
2022-12-12T23:46:28.352Z,1.80
2022-12-12T23:49:06.394Z,1.80
2022-12-12T23:51:35.909Z,1.80
2022-12-12T23:54:04.900Z,1.80
2022-12-12T23:56:32.303Z,1.80
2022-12-12T23:58:59.941Z,1.80
